Time;durP1;ratioP1;P1;durP2;ratioP2;P2;SDS_P1;SDS_P2;PMS_P1;PMS_P2;Temp;Humidity;BMP_temperature;BMP_pressure;BME280_temperature;BME280_humidity;BME280_pressure;Samples;Min_cycle;Max_cycle;Signal;HPM_P1;HPM_P2
2023/06/02 00:02:19;;;;;;;12.30;11.10;;;19.30;99.90;;;;;;6305092;22;20010;-63
2023/06/02 00:04:45;;;;;;;13.00;11.70;;;19.30;99.90;;;;;;6305274;22;19999;-63
2023/06/02 00:07:11;;;;;;;12.55;11.40;;;19.30;99.90;;;;;;6305194;22;20426;-62
2023/06/02 00:09:42;;;;;;;12.52;11.38;;;19.20;99.90;;;;;;6305013;22;20023;-62
2023/06/02 00:12:10;;;;;;;13.63;12.25;;;19.20;99.90;;;;;;6305180;22;19999;-62
2023/06/02 00:14:42;;;;;;;13.20;11.93;;;19.10;99.90;;;;;;6307265;22;20026;-62
2023/06/02 00:17:08;;;;;;;13.15;11.70;;;19.10;99.90;;;;;;6307192;22;20345;-62
2023/06/02 00:19:35;;;;;;;12.90;11.80;;;19.10;99.90;;;;;;6307203;22;20083;-62
2023/06/02 00:22:05;;;;;;;13.65;12.45;;;19.00;99.90;;;;;;6306656;22;20052;-61
2023/06/02 00:24:32;;;;;;;14.27;12.88;;;19.10;99.90;;;;;;6280410;22;20006;-63
2023/06/02 00:26:58;;;;;;;14.50;13.10;;;19.00;99.90;;;;;;6306844;22;20468;-62
2023/06/02 00:29:23;;;;;;;14.25;12.98;;;19.00;99.90;;;;;;6307084;22;19995;-62
2023/06/02 00:31:49;;;;;;;15.30;13.90;;;19.00;99.90;;;;;;6306960;22;20018;-61
2023/06/02 00:34:15;;;;;;;16.20;14.52;;;18.90;99.90;;;;;;6307582;22;20076;-62
2023/06/02 00:36:40;;;;;;;16.40;14.75;;;18.90;99.90;;;;;;6306516;22;20038;-61
2023/06/02 00:39:07;;;;;;;16.00;14.60;;;18.80;99.90;;;;;;6307227;22;19999;-62
2023/06/02 00:41:33;;;;;;;15.95;14.30;;;18.80;99.90;;;;;;6307548;22;20008;-60
2023/06/02 00:43:59;;;;;;;15.65;14.05;;;18.80;99.90;;;;;;6307014;22;19999;-62
2023/06/02 00:46:25;;;;;;;16.02;14.50;;;18.80;99.90;;;;;;6306741;22;20003;-62
2023/06/02 00:48:51;;;;;;;16.63;15.20;;;18.80;99.90;;;;;;6306777;22;19999;-62
2023/06/02 00:51:18;;;;;;;17.52;15.80;;;18.80;99.90;;;;;;6306589;22;20007;-61
2023/06/02 00:53:45;;;;;;;16.58;15.07;;;18.70;99.90;;;;;;6307030;22;20070;-62
2023/06/02 00:56:15;;;;;;;16.67;15.05;;;18.70;99.90;;;;;;6306567;22;20014;-62
2023/06/02 00:58:45;;;;;;;18.40;16.70;;;18.70;99.90;;;;;;6306680;22;20005;-62
2023/06/02 01:01:12;;;;;;;19.48;17.20;;;18.70;99.90;;;;;;6306985;22;20082;-62
2023/06/02 01:03:43;;;;;;;18.83;17.08;;;18.60;99.90;;;;;;6306561;22;20003;-62
2023/06/02 01:06:10;;;;;;;20.02;18.13;;;18.60;99.90;;;;;;6307055;22;20003;-62
2023/06/02 01:08:38;;;;;;;19.33;17.52;;;18.60;99.90;;;;;;6306884;22;20030;-62
2023/06/02 01:11:05;;;;;;;19.20;17.20;;;18.60;99.90;;;;;;6306394;22;20007;-62
2023/06/02 01:13:31;;;;;;;19.55;17.80;;;18.50;99.90;;;;;;6306913;22;20337;-63
2023/06/02 01:15:57;;;;;;;18.48;16.83;;;18.50;99.90;;;;;;6306465;22;20011;-62
2023/06/02 01:18:25;;;;;;;18.85;17.05;;;18.50;99.90;;;;;;6306186;22;20003;-61
2023/06/02 01:20:57;;;;;;;18.40;16.60;;;18.50;99.90;;;;;;6307140;22;20003;-63
2023/06/02 01:23:28;;;;;;;21.10;19.00;;;18.50;99.90;;;;;;6306953;22;20007;-61
2023/06/02 01:25:54;;;;;;;19.55;17.70;;;18.50;99.90;;;;;;6306556;22;20142;-62
2023/06/02 01:28:21;;;;;;;20.85;18.95;;;18.60;99.90;;;;;;6306295;22;20000;-62
2023/06/02 01:30:51;;;;;;;21.48;19.48;;;18.50;99.90;;;;;;6306378;22;20019;-62
2023/06/02 01:33:26;;;;;;;18.73;17.02;;;18.50;99.90;;;;;;6305711;22;19999;-63
2023/06/02 01:35:59;;;;;;;18.00;16.50;;;18.50;99.90;;;;;;6306597;22;20038;-62
2023/06/02 01:38:28;;;;;;;17.93;16.17;;;18.50;99.90;;;;;;6306198;22;20027;-62
2023/06/02 01:41:02;;;;;;;17.98;16.30;;;18.50;99.90;;;;;;6306599;22;20008;-61
2023/06/02 01:43:30;;;;;;;18.10;16.00;;;18.40;99.90;;;;;;6306257;22;20006;-62
2023/06/02 01:45:57;;;;;;;16.75;15.25;;;18.30;99.90;;;;;;6306248;22;20007;-62
2023/06/02 01:48:22;;;;;;;17.92;16.35;;;18.30;99.90;;;;;;6305832;22;20095;-62
2023/06/02 01:50:48;;;;;;;18.40;16.50;;;18.40;99.90;;;;;;6306079;22;19999;-62
2023/06/02 01:53:13;;;;;;;18.65;16.95;;;18.30;99.90;;;;;;6306589;22;20430;-62
2023/06/02 01:55:39;;;;;;;17.92;16.27;;;18.20;99.90;;;;;;6306112;22;20394;-63
2023/06/02 01:58:05;;;;;;;17.60;16.05;;;18.20;99.90;;;;;;6278694;22;20068;-61
2023/06/02 02:00:31;;;;;;;16.52;15.10;;;18.30;99.90;;;;;;6306144;22;20019;-62
2023/06/02 02:02:57;;;;;;;15.70;14.30;;;18.20;99.90;;;;;;6305443;22;20014;-62
2023/06/02 02:05:23;;;;;;;15.93;14.45;;;18.20;99.90;;;;;;6306402;22;20000;-62
2023/06/02 02:07:50;;;;;;;16.67;15.07;;;18.10;99.90;;;;;;6306400;22;20007;-61
2023/06/02 02:10:16;;;;;;;15.98;14.48;;;18.10;99.90;;;;;;6306273;22;20026;-62
2023/06/02 02:12:42;;;;;;;16.30;14.80;;;18.10;99.90;;;;;;6305925;22;20003;-63
2023/06/02 02:15:09;;;;;;;17.67;16.15;;;18.00;99.90;;;;;;6306145;22;20060;-62
2023/06/02 02:17:36;;;;;;;16.50;14.95;;;18.00;99.90;;;;;;6305425;22;20015;-62
2023/06/02 02:20:04;;;;;;;16.58;14.98;;;17.90;99.90;;;;;;6306377;22;20010;-62
2023/06/02 02:22:30;;;;;;;16.15;14.60;;;18.00;99.90;;;;;;6306154;22;20007;-62
2023/06/02 02:24:56;;;;;;;15.85;14.48;;;18.00;99.90;;;;;;6305786;22;20121;-62
2023/06/02 02:27:22;;;;;;;18.02;16.40;;;18.00;99.90;;;;;;6305861;22;19996;-62
2023/06/02 02:29:48;;;;;;;17.55;15.75;;;18.00;99.90;;;;;;6305514;22;20509;-62
2023/06/02 02:32:14;;;;;;;16.42;14.95;;;17.90;99.90;;;;;;6305390;22;20007;-62
2023/06/02 02:34:39;;;;;;;16.33;15.02;;;17.80;99.90;;;;;;6278514;22;20337;-62
2023/06/02 02:37:06;;;;;;;16.52;15.13;;;17.90;99.90;;;;;;6305089;22;20061;-62
2023/06/02 02:39:35;;;;;;;16.98;15.27;;;17.80;99.90;;;;;;6305772;22;20456;-62
2023/06/02 02:42:00;;;;;;;16.35;14.77;;;17.80;99.90;;;;;;6305735;22;20003;-63
2023/06/02 02:44:26;;;;;;;16.58;14.98;;;17.80;99.90;;;;;;6306256;22;20033;-62
2023/06/02 02:46:52;;;;;;;16.58;15.02;;;17.80;99.90;;;;;;6305155;22;20007;-62
2023/06/02 02:49:17;;;;;;;16.17;14.85;;;17.80;99.90;;;;;;6305704;22;20003;-62
2023/06/02 02:51:43;;;;;;;15.30;13.90;;;17.80;99.90;;;;;;6306008;22;20074;-60
2023/06/02 02:54:09;;;;;;;15.75;14.55;;;17.80;99.90;;;;;;6305574;22;20007;-61
2023/06/02 02:56:36;;;;;;;16.45;15.00;;;17.70;99.90;;;;;;6305485;22;20426;-61
2023/06/02 02:59:02;;;;;;;14.75;13.35;;;17.70;99.90;;;;;;6305910;22;20048;-63
2023/06/02 03:01:30;;;;;;;14.80;13.25;;;17.60;99.90;;;;;;6305684;22;20101;-62
2023/06/02 03:03:56;;;;;;;14.10;12.90;;;17.60;99.90;;;;;;6278519;22;20098;-62
2023/06/02 03:06:29;;;;;;;14.45;13.15;;;17.60;99.90;;;;;;6305373;22;19999;-63
2023/06/02 03:08:54;;;;;;;15.13;13.73;;;17.70;99.90;;;;;;6305359;22;20434;-63
2023/06/02 03:11:21;;;;;;;15.52;14.02;;;17.60;99.90;;;;;;6305858;22;19996;-62
2023/06/02 03:13:47;;;;;;;14.18;12.88;;;17.60;99.90;;;;;;6305858;22;20011;-62
2023/06/02 03:16:13;;;;;;;14.15;12.95;;;17.60;99.90;;;;;;6304917;22;20065;-62
2023/06/02 03:18:38;;;;;;;15.30;13.80;;;17.60;99.90;;;;;;6305115;22;19999;-62
2023/06/02 03:21:05;;;;;;;14.15;13.02;;;17.60;99.90;;;;;;6305833;22;19999;-62
2023/06/02 03:23:31;;;;;;;14.55;13.30;;;17.60;99.90;;;;;;6305435;22;20066;-63
2023/06/02 03:26:00;;;;;;;14.77;13.38;;;17.50;99.90;;;;;;6305680;22;20046;-62
2023/06/02 03:28:25;;;;;;;14.18;12.98;;;17.50;99.90;;;;;;6304815;22;20042;-62
2023/06/02 03:30:51;;;;;;;14.55;13.05;;;17.40;99.90;;;;;;6305138;22;20007;-62
2023/06/02 03:33:17;;;;;;;13.50;12.40;;;17.40;99.90;;;;;;6305510;22;20007;-62
2023/06/02 03:35:42;;;;;;;13.57;12.30;;;17.40;99.90;;;;;;6305091;22;19999;-62
2023/06/02 03:38:08;;;;;;;13.63;12.52;;;17.50;99.90;;;;;;6305504;22;20014;-62
2023/06/02 03:40:34;;;;;;;13.48;12.38;;;17.50;99.90;;;;;;6277967;22;20108;-62
2023/06/02 03:43:00;;;;;;;13.77;12.68;;;17.40;99.90;;;;;;6304910;22;20007;-63
2023/06/02 03:45:26;;;;;;;13.77;12.48;;;17.40;99.90;;;;;;6305570;22;20003;-62
2023/06/02 03:47:51;;;;;;;13.05;12.02;;;17.40;99.90;;;;;;6304983;22;20008;-62
2023/06/02 03:50:17;;;;;;;12.85;11.75;;;17.40;99.90;;;;;;6305495;22;20007;-62
2023/06/02 03:52:43;;;;;;;13.05;11.95;;;17.40;99.90;;;;;;6305613;22;20026;-63
2023/06/02 03:55:09;;;;;;;13.60;12.18;;;17.30;99.90;;;;;;6305473;22;19999;-62
2023/06/02 03:57:34;;;;;;;12.65;11.45;;;17.30;99.90;;;;;;6304825;22;20064;-63
2023/06/02 04:00:00;;;;;;;13.57;12.27;;;17.30;99.90;;;;;;6305717;22;19999;-63
2023/06/02 04:02:26;;;;;;;12.68;11.65;;;17.30;99.90;;;;;;6305085;22;20105;-62
2023/06/02 04:04:52;;;;;;;12.63;11.60;;;17.30;99.90;;;;;;6305220;22;20083;-62
2023/06/02 04:07:17;;;;;;;13.07;11.90;;;17.30;99.90;;;;;;6304906;22;20031;-62
2023/06/02 04:09:43;;;;;;;12.80;11.80;;;17.30;99.90;;;;;;6305378;22;20003;-62
2023/06/02 04:12:09;;;;;;;12.88;11.80;;;17.30;99.90;;;;;;6304704;22;20083;-61
2023/06/02 04:14:35;;;;;;;13.23;12.18;;;17.20;99.90;;;;;;6304882;22;19999;-63
2023/06/02 04:17:00;;;;;;;13.35;12.15;;;17.20;99.90;;;;;;6305456;22;20037;-62
2023/06/02 04:19:26;;;;;;;12.73;11.60;;;17.10;99.90;;;;;;6305175;22;20767;-63
2023/06/02 04:21:52;;;;;;;13.60;12.40;;;17.10;99.90;;;;;;6305123;22;20401;-62
2023/06/02 04:24:18;;;;;;;14.00;12.80;;;17.00;99.90;;;;;;6305698;22;20342;-63
2023/06/02 04:26:46;;;;;;;13.50;12.40;;;17.00;99.90;;;;;;6304934;22;20074;-63
2023/06/02 04:29:11;;;;;;;14.15;12.95;;;17.00;99.90;;;;;;6305081;22;20371;-63
2023/06/02 04:31:49;;;;;;;14.15;12.95;;;17.00;99.90;;;;;;6305088;22;20106;-62
2023/06/02 04:34:15;;;;;;;14.63;13.27;;;17.00;99.90;;;;;;6305217;22;20010;-62
2023/06/02 04:36:41;;;;;;;14.48;13.25;;;16.90;99.90;;;;;;6304798;22;20438;-61
2023/06/02 04:39:08;;;;;;;14.02;12.73;;;16.90;99.90;;;;;;6305325;22;20447;-62
2023/06/02 04:41:36;;;;;;;15.10;13.70;;;16.80;99.90;;;;;;6304590;22;20011;-62
2023/06/02 04:44:02;;;;;;;13.82;12.65;;;16.80;99.90;;;;;;6305275;22;20003;-62
2023/06/02 04:46:28;;;;;;;14.82;13.48;;;16.80;99.90;;;;;;6304802;22;20333;-62
2023/06/02 04:48:54;;;;;;;14.82;13.50;;;16.80;99.90;;;;;;6304957;22;20010;-62
2023/06/02 04:51:29;;;;;;;15.13;13.82;;;16.80;99.90;;;;;;6304805;22;19996;-61
2023/06/02 04:53:55;;;;;;;14.57;13.27;;;16.80;99.90;;;;;;6305034;22;20018;-62
2023/06/02 04:56:23;;;;;;;14.55;13.13;;;16.80;99.90;;;;;;6304381;22;20338;-62
2023/06/02 04:58:49;;;;;;;14.85;13.55;;;16.80;99.90;;;;;;6305033;22;20079;-64
2023/06/02 05:01:14;;;;;;;14.80;13.48;;;16.80;99.90;;;;;;6306485;22;20027;-64
2023/06/02 05:03:40;;;;;;;14.82;13.38;;;16.80;99.90;;;;;;6306630;22;20002;-63
2023/06/02 05:06:06;;;;;;;14.88;13.50;;;16.80;99.90;;;;;;6306834;22;20030;-63
2023/06/02 05:08:32;;;;;;;14.63;12.93;;;16.90;99.90;;;;;;6306541;22;20074;-64
2023/06/02 05:10:57;;;;;;;14.27;13.00;;;16.90;99.90;;;;;;6306483;22;20393;-64
2023/06/02 05:13:23;;;;;;;14.73;13.20;;;16.90;99.90;;;;;;6306265;22;20422;-63
2023/06/02 05:15:49;;;;;;;13.43;12.32;;;16.90;99.90;;;;;;6307177;22;20333;-64
2023/06/02 05:18:15;;;;;;;13.43;12.30;;;16.90;99.90;;;;;;6306320;22;20035;-64
2023/06/02 05:20:41;;;;;;;14.32;12.43;;;17.00;99.90;;;;;;6306567;22;19999;-63
2023/06/02 05:23:07;;;;;;;14.13;12.85;;;17.10;99.90;;;;;;6306491;22;20832;-64
2023/06/02 05:25:33;;;;;;;13.82;12.40;;;17.10;99.90;;;;;;6306364;22;20022;-64
2023/06/02 05:27:59;;;;;;;13.63;12.43;;;17.10;99.90;;;;;;6306590;22;20430;-64
2023/06/02 05:30:25;;;;;;;13.63;12.27;;;17.10;99.90;;;;;;6306576;22;20003;-64
2023/06/02 05:32:50;;;;;;;13.75;12.38;;;17.10;99.90;;;;;;6306595;22;20003;-64
2023/06/02 05:35:16;;;;;;;14.20;12.90;;;17.10;99.90;;;;;;6306267;22;20836;-63
2023/06/02 05:37:43;;;;;;;14.55;13.10;;;17.20;99.90;;;;;;6306100;22;20015;-65
2023/06/02 05:40:10;;;;;;;13.70;12.15;;;17.20;99.90;;;;;;6306070;22;20057;-64
2023/06/02 05:42:35;;;;;;;13.90;12.45;;;17.20;99.90;;;;;;6306576;22;20047;-64
2023/06/02 05:45:05;;;;;;;13.10;11.82;;;17.20;99.90;;;;;;6306538;22;20071;-64
2023/06/02 05:47:31;;;;;;;14.43;11.63;;;17.20;99.90;;;;;;6306429;22;20010;-63
2023/06/02 05:49:57;;;;;;;12.75;11.55;;;17.30;99.90;;;;;;6306074;22;20004;-63
2023/06/02 05:52:22;;;;;;;12.80;11.60;;;17.40;99.90;;;;;;6306114;22;19995;-64
2023/06/02 05:54:48;;;;;;;12.27;11.07;;;17.40;99.90;;;;;;6306274;22;20082;-64
2023/06/02 05:57:14;;;;;;;12.82;11.70;;;17.50;99.90;;;;;;6305661;22;20446;-64
2023/06/02 05:59:39;;;;;;;12.00;10.90;;;17.50;99.90;;;;;;6306200;22;20003;-64
2023/06/02 06:02:06;;;;;;;11.30;10.40;;;17.50;99.90;;;;;;6306377;22;20061;-65
2023/06/02 06:04:32;;;;;;;11.15;10.13;;;17.60;99.90;;;;;;6306123;22;20086;-64
2023/06/02 06:07:00;;;;;;;12.95;11.75;;;17.60;99.90;;;;;;6306301;22;20041;-63
2023/06/02 06:09:26;;;;;;;13.00;11.85;;;17.70;99.90;;;;;;6305583;22;20003;-64
2023/06/02 06:11:52;;;;;;;12.68;11.68;;;17.70;99.90;;;;;;6305907;22;20004;-65
2023/06/02 06:14:18;;;;;;;14.00;12.80;;;17.80;99.90;;;;;;6306172;22;20074;-64
2023/06/02 06:16:43;;;;;;;15.85;14.27;;;17.80;99.90;;;;;;6278417;22;20022;-63
2023/06/02 06:19:11;;;;;;;15.63;14.32;;;17.80;99.90;;;;;;6305735;22;20390;-64
2023/06/02 06:21:37;;;;;;;18.45;16.50;;;17.90;99.90;;;;;;6305574;22;20487;-62
2023/06/02 06:24:04;;;;;;;19.40;17.45;;;17.90;99.90;;;;;;6305512;22;20052;-64
2023/06/02 06:26:30;;;;;;;20.70;18.58;;;17.90;99.90;;;;;;6305856;22;20373;-64
2023/06/02 06:28:56;;;;;;;20.67;18.75;;;18.00;99.90;;;;;;6306210;22;20003;-63
2023/06/02 06:31:21;;;;;;;17.80;16.20;;;18.00;99.90;;;;;;6305560;22;20015;-64
2023/06/02 06:33:47;;;;;;;21.90;19.90;;;18.00;99.90;;;;;;6305491;22;20010;-64
2023/06/02 06:36:13;;;;;;;20.98;18.98;;;18.10;99.90;;;;;;6306211;22;20019;-64
2023/06/02 06:38:40;;;;;;;21.55;19.40;;;18.20;99.90;;;;;;6304999;22;20022;-64
2023/06/02 06:41:06;;;;;;;22.02;19.70;;;18.30;99.90;;;;;;6305520;22;20003;-65
2023/06/02 06:43:32;;;;;;;19.70;18.00;;;18.30;99.90;;;;;;6305587;22;20006;-64
2023/06/02 06:45:59;;;;;;;20.13;18.33;;;18.40;99.90;;;;;;6305316;22;20001;-64
2023/06/02 06:48:25;;;;;;;20.35;18.42;;;18.50;99.90;;;;;;6304715;22;20015;-63
2023/06/02 06:50:50;;;;;;;19.85;17.98;;;18.60;99.90;;;;;;6305249;22;19999;-64
2023/06/02 06:53:17;;;;;;;18.90;17.25;;;18.70;99.90;;;;;;6304683;22;20014;-63
2023/06/02 06:55:43;;;;;;;18.50;16.98;;;18.70;99.90;;;;;;6305095;22;19999;-64
2023/06/02 06:58:09;;;;;;;19.23;17.38;;;18.80;99.90;;;;;;6305975;22;20007;-64
2023/06/02 07:00:35;;;;;;;19.30;17.58;;;18.80;99.90;;;;;;6305636;22;20418;-64
2023/06/02 07:03:00;;;;;;;20.50;18.45;;;18.90;99.90;;;;;;6305378;22;20319;-64
2023/06/02 07:05:28;;;;;;;19.63;17.65;;;19.00;99.90;;;;;;6305776;22;20080;-64
2023/06/02 07:07:53;;;;;;;16.08;14.35;;;19.00;99.90;;;;;;6305596;22;20337;-63
2023/06/02 07:10:19;;;;;;;13.23;11.85;;;19.00;99.90;;;;;;6305198;22;19999;-64
2023/06/02 07:12:45;;;;;;;13.50;12.10;;;19.00;99.90;;;;;;6304875;22;20003;-63
2023/06/02 07:15:11;;;;;;;13.10;12.00;;;18.90;99.90;;;;;;6305179;22;20368;-64
2023/06/02 07:17:38;;;;;;;12.38;11.32;;;19.00;99.90;;;;;;6305620;22;20015;-63
2023/06/02 07:20:05;;;;;;;12.70;11.48;;;19.10;99.90;;;;;;6305572;22;19995;-64
2023/06/02 07:22:30;;;;;;;12.13;11.02;;;19.10;99.90;;;;;;6304637;22;20018;-64
2023/06/02 07:24:56;;;;;;;12.88;11.57;;;19.10;99.90;;;;;;6305895;22;20003;-63
2023/06/02 07:27:21;;;;;;;12.30;11.02;;;19.20;99.90;;;;;;6305305;22;20104;-63
2023/06/02 07:29:47;;;;;;;16.08;11.02;;;19.20;99.90;;;;;;6304923;22;20434;-63
2023/06/02 07:32:13;;;;;;;13.43;10.98;;;19.30;99.90;;;;;;6305209;22;20018;-63
2023/06/02 07:34:39;;;;;;;14.10;12.73;;;19.30;99.90;;;;;;6305593;22;20007;-64
2023/06/02 07:37:05;;;;;;;12.38;11.23;;;19.40;99.90;;;;;;6304854;22;20015;-64
2023/06/02 07:39:31;;;;;;;17.70;15.95;;;19.50;99.90;;;;;;6305118;22;20000;-63
2023/06/02 07:41:56;;;;;;;21.90;19.85;;;19.50;99.90;;;;;;6305203;22;20072;-63
2023/06/02 07:44:22;;;;;;;17.52;16.02;;;19.60;99.90;;;;;;6305238;22;20003;-63
2023/06/02 07:46:48;;;;;;;18.33;15.38;;;19.70;99.90;;;;;;6305033;22;20007;-63
2023/06/02 07:49:13;;;;;;;16.20;14.35;;;19.90;99.90;;;;;;6305137;22;19995;-63
2023/06/02 07:51:39;;;;;;;14.60;12.82;;;20.00;99.90;;;;;;6305212;22;20022;-63
2023/06/02 07:54:05;;;;;;;11.50;10.18;;;20.10;99.90;;;;;;6304925;22;19999;-63
2023/06/02 07:56:31;;;;;;;11.65;10.57;;;20.10;99.90;;;;;;6305458;22;20387;-63
2023/06/02 07:58:57;;;;;;;11.77;10.50;;;20.20;99.90;;;;;;6304987;22;20014;-63
2023/06/02 08:01:22;;;;;;;10.60;9.68;;;20.20;99.90;;;;;;6305321;22;20088;-64
2023/06/02 08:03:48;;;;;;;11.07;10.07;;;20.20;99.90;;;;;;6305262;22;20003;-63
2023/06/02 08:06:14;;;;;;;11.25;9.65;;;20.30;99.90;;;;;;6305389;22;20048;-64
2023/06/02 08:08:40;;;;;;;10.90;9.90;;;20.30;99.90;;;;;;6277591;22;20011;-64
2023/06/02 08:11:06;;;;;;;10.35;9.45;;;20.40;99.90;;;;;;6305366;22;19999;-63
2023/06/02 08:13:31;;;;;;;11.02;9.93;;;20.40;99.90;;;;;;6304884;22;20525;-63
2023/06/02 08:15:59;;;;;;;11.40;9.57;;;20.60;99.90;;;;;;6305287;22;20060;-64
2023/06/02 08:18:25;;;;;;;11.57;9.90;;;20.70;99.90;;;;;;6304822;22;20092;-62
2023/06/02 08:20:51;;;;;;;13.73;9.43;;;20.70;99.90;;;;;;6305700;22;20014;-64
2023/06/02 08:23:17;;;;;;;11.93;10.20;;;20.70;99.90;;;;;;6304858;22;20346;-64
2023/06/02 08:25:44;;;;;;;13.73;9.77;;;20.80;99.90;;;;;;6304792;22;20446;-63
2023/06/02 08:28:11;;;;;;;10.85;9.75;;;20.90;99.90;;;;;;6305201;22;20324;-64
2023/06/02 08:30:37;;;;;;;11.88;9.70;;;21.10;99.90;;;;;;6305204;22;20103;-64
2023/06/02 08:33:08;;;;;;;10.82;9.80;;;21.10;99.90;;;;;;6304430;22;19999;-63
2023/06/02 08:35:36;;;;;;;11.05;9.95;;;21.10;99.90;;;;;;6306153;22;20003;-63
2023/06/02 08:38:03;;;;;;;10.63;9.55;;;21.20;99.90;;;;;;6307410;22;20007;-64
2023/06/02 08:40:38;;;;;;;10.52;9.40;;;21.30;99.90;;;;;;6306365;22;20456;-63
2023/06/02 08:43:13;;;;;;;10.23;9.23;;;21.30;99.90;;;;;;6307224;22;19999;-63
2023/06/02 08:45:48;;;;;;;10.02;8.30;;;21.40;99.90;;;;;;6306713;22;20049;-63
2023/06/02 08:48:17;;;;;;;9.13;8.27;;;21.60;99.90;;;;;;6306250;22;20045;-63
2023/06/02 08:50:52;;;;;;;10.95;8.13;;;21.70;99.90;;;;;;6306968;22;20031;-63
2023/06/02 08:53:21;;;;;;;9.65;8.80;;;21.70;99.90;;;;;;6306978;22;20008;-63
2023/06/02 08:55:50;;;;;;;9.63;8.73;;;21.70;99.90;;;;;;6306568;22;20007;-64
2023/06/02 08:58:16;;;;;;;9.80;8.30;;;21.80;99.90;;;;;;6306999;22;20446;-63
2023/06/02 09:00:42;;;;;;;11.13;8.57;;;21.90;99.90;;;;;;6306504;22;20010;-63
2023/06/02 09:03:12;;;;;;;9.23;8.30;;;22.00;99.90;;;;;;6306059;22;20011;-63
2023/06/02 09:05:37;;;;;;;9.18;7.38;;;22.20;99.90;;;;;;6306437;22;20386;-63
2023/06/02 09:08:10;;;;;;;8.27;7.20;;;22.40;99.90;;;;;;6307221;22;20004;-64
2023/06/02 09:10:42;;;;;;;9.75;7.07;;;22.30;99.90;;;;;;6307314;22;20337;-63
2023/06/02 09:13:32;;;;;;;8.38;7.30;;;22.30;99.90;;;;;;6306488;22;20027;-64
2023/06/02 09:15:58;;;;;;;6.75;6.15;;;22.50;99.90;;;;;;6306514;22;20014;-63
2023/06/02 09:18:24;;;;;;;6.10;5.50;;;22.80;99.90;;;;;;6306378;22;20368;-62
2023/06/02 09:20:50;;;;;;;6.05;5.45;;;22.70;99.90;;;;;;6306254;22;20445;-63
2023/06/02 09:23:16;;;;;;;6.20;5.60;;;22.80;99.90;;;;;;6306546;22;20434;-64
2023/06/02 09:25:43;;;;;;;7.45;5.60;;;22.90;99.90;;;;;;6306694;22;20014;-64
2023/06/02 09:28:09;;;;;;;6.93;5.35;;;22.80;99.90;;;;;;6307105;22;20318;-63
2023/06/02 09:30:35;;;;;;;6.32;4.88;;;22.80;99.90;;;;;;6306491;22;20084;-63
2023/06/02 09:33:11;;;;;;;5.80;5.20;;;22.90;99.90;;;;;;6305822;22;20010;-64
2023/06/02 09:35:45;;;;;;;7.18;5.38;;;23.10;99.90;;;;;;6306327;22;20007;-64
2023/06/02 09:38:13;;;;;;;5.60;4.97;;;23.20;99.90;;;;;;6306991;22;20014;-63
2023/06/02 09:40:40;;;;;;;12.43;5.15;;;23.10;99.90;;;;;;6306679;22;20007;-63
2023/06/02 09:43:08;;;;;;;6.63;4.88;;;23.40;99.90;;;;;;6306212;22;20476;-64
2023/06/02 09:45:54;;;;;;;4.93;4.40;;;23.50;99.90;;;;;;6305447;22;20082;-64
2023/06/02 09:48:22;;;;;;;4.85;4.45;;;23.40;99.90;;;;;;6306483;22;20008;-64
2023/06/02 09:50:48;;;;;;;6.40;4.60;;;23.40;99.90;;;;;;6306325;22;20003;-64
2023/06/02 09:53:17;;;;;;;5.25;4.53;;;23.60;99.90;;;;;;6306468;22;20341;-64
2023/06/02 09:55:44;;;;;;;7.78;4.88;;;23.70;99.90;;;;;;6306396;22;20000;-64
2023/06/02 09:58:10;;;;;;;5.05;4.28;;;23.90;99.90;;;;;;6306333;22;20007;-63
2023/06/02 10:00:36;;;;;;;5.25;4.35;;;23.80;99.90;;;;;;6305884;22;20372;-63
2023/06/02 10:03:03;;;;;;;5.07;4.28;;;23.90;99.90;;;;;;6305888;22;20007;-64
2023/06/02 10:05:29;;;;;;;5.20;4.63;;;24.00;99.90;;;;;;6305864;22;20000;-64
2023/06/02 10:08:10;;;;;;;5.43;4.90;;;24.10;99.90;;;;;;6306419;22;20003;-63
2023/06/02 10:11:00;;;;;;;4.35;3.97;;;24.20;99.90;;;;;;6306471;22;20426;-63
2023/06/02 10:13:35;;;;;;;4.20;3.80;;;24.40;99.90;;;;;;6305542;22;20336;-64
2023/06/02 10:16:20;;;;;;;5.57;4.40;;;24.60;99.90;;;;;;6305030;22;20422;-64
2023/06/02 10:19:10;;;;;;;5.72;4.10;;;24.60;99.90;;;;;;6277821;22;20007;-65
2023/06/02 10:22:01;;;;;;;5.15;3.83;;;24.70;99.90;;;;;;6304663;22;19999;-63
2023/06/02 10:25:04;;;;;;;6.43;4.00;;;24.70;99.90;;;;;;6304629;22;20111;-64
2023/06/02 10:27:35;;;;;;;6.80;4.43;;;24.70;99.90;;;;;;6305769;22;20329;-64
2023/06/02 10:30:02;;;;;;;4.90;4.30;;;24.80;99.90;;;;;;6305253;22;20031;-62
2023/06/02 10:32:33;;;;;;;6.25;4.50;;;24.90;99.90;;;;;;6306451;22;20349;-63
2023/06/02 10:35:02;;;;;;;4.70;4.20;;;25.10;99.90;;;;;;6306019;22;20007;-63
2023/06/02 10:37:28;;;;;;;4.47;4.07;;;25.10;99.90;;;;;;6305461;22;20088;-63
2023/06/02 10:39:56;;;;;;;4.57;3.90;;;25.10;99.90;;;;;;6278388;22;20382;-63
2023/06/02 10:42:24;;;;;;;4.85;4.00;;;25.20;99.90;;;;;;6305707;22;19999;-64
2023/06/02 10:44:52;;;;;;;4.28;3.88;;;25.40;99.90;;;;;;6305011;22;20003;-64
2023/06/02 10:47:17;;;;;;;4.70;4.30;;;25.40;99.90;;;;;;6306153;22;20383;-64
2023/06/02 10:50:01;;;;;;;4.40;4.00;;;25.60;99.90;;;;;;6304859;22;20007;-62
2023/06/02 10:52:54;;;;;;;4.40;4.00;;;25.70;99.90;;;;;;6306333;22;20021;-63
2023/06/02 10:55:20;;;;;;;4.35;3.95;;;25.50;99.90;;;;;;6305350;22;20520;-62
2023/06/02 10:58:03;;;;;;;4.00;3.70;;;25.50;99.90;;;;;;6304902;22;20026;-63
2023/06/02 11:00:32;;;;;;;4.40;4.00;;;25.50;99.90;;;;;;6305782;22;20007;-63
2023/06/02 11:03:02;;;;;;;4.20;3.80;;;25.70;99.90;;;;;;6305532;22;20007;-63
2023/06/02 11:05:33;;;;;;;4.82;3.95;;;25.80;99.90;;;;;;6305427;22;20088;-63
2023/06/02 11:08:11;;;;;;;8.50;4.13;;;26.00;99.90;;;;;;6305328;22;20003;-62
2023/06/02 11:10:43;;;;;;;4.20;3.80;;;26.10;99.90;;;;;;6305592;22;20011;-63
2023/06/02 11:13:09;;;;;;;7.53;4.03;;;26.10;99.90;;;;;;6305231;22;20003;-64
2023/06/02 11:15:35;;;;;;;5.00;3.80;;;26.20;99.90;;;;;;6305799;22;20345;-64
2023/06/02 11:18:21;;;;;;;4.38;3.75;;;26.20;99.90;;;;;;6305168;22;20082;-64
2023/06/02 11:20:49;;;;;;;11.38;3.90;;;26.10;99.90;;;;;;6305210;22;20014;-64
2023/06/02 11:23:17;;;;;;;4.57;3.78;;;26.30;99.90;;;;;;6305539;22;20003;-63
2023/06/02 11:25:43;;;;;;;7.15;3.80;;;26.40;99.90;;;;;;6305364;22;20003;-64
2023/06/02 11:28:22;;;;;;;4.15;3.75;;;26.40;99.90;;;;;;6277321;22;20007;-63
2023/06/02 11:31:04;;;;;;;4.90;4.43;;;26.40;99.90;;;;;;6304905;22;20007;-63
2023/06/02 11:33:32;;;;;;;7.78;7.03;;;26.60;99.90;;;;;;6304947;22;20081;-63
2023/06/02 11:35:59;;;;;;;6.93;5.55;;;26.90;99.90;;;;;;6305599;22;20086;-64
2023/06/02 11:38:31;;;;;;;4.88;4.35;;;27.10;99.90;;;;;;6305776;22;20026;-64
2023/06/02 11:41:08;;;;;;;4.32;3.92;;;27.40;99.90;;;;;;6305141;22;20441;-63
2023/06/02 11:43:34;;;;;;;4.50;4.10;;;27.20;99.90;;;;;;6305067;22;20070;-64
2023/06/02 11:46:11;;;;;;;4.40;4.00;;;27.10;99.90;;;;;;6305329;22;20456;-64
2023/06/02 11:48:40;;;;;;;4.97;4.07;;;27.10;99.90;;;;;;6305636;22;20003;-63
2023/06/02 11:51:09;;;;;;;5.00;3.60;;;27.00;99.90;;;;;;6305046;22;20503;-64
2023/06/02 11:53:44;;;;;;;4.20;3.20;;;27.10;99.90;;;;;;6277862;22;20014;-64
2023/06/02 11:56:11;;;;;;;3.90;3.50;;;27.30;99.90;;;;;;6304927;22;20464;-63
2023/06/02 11:58:45;;;;;;;4.22;3.70;;;27.40;99.90;;;;;;6305530;22;20007;-64
2023/06/02 12:01:14;;;;;;;;;;;27.40;99.90;;;;;;6305460;22;19995;-63
2023/06/02 12:04:02;;;;;;;3.90;3.60;;;27.30;99.90;;;;;;6305488;22;19905;-63
2023/06/02 12:06:29;;;;;;;3.92;3.50;;;27.50;99.90;;;;;;6305397;22;20078;-64
2023/06/02 12:08:55;;;;;;;4.85;3.70;;;27.70;99.90;;;;;;6305740;22;20481;-64
2023/06/02 12:11:25;;;;;;;5.55;4.13;;;27.70;99.90;;;;;;6306622;22;19999;-63
2023/06/02 12:14:04;;;;;;;5.90;3.78;;;28.00;99.90;;;;;;6306976;22;20388;-64
2023/06/02 12:16:31;;;;;;;4.40;4.00;;;28.10;99.90;;;;;;6307195;22;20007;-64
2023/06/02 12:19:16;;;;;;;4.10;3.65;;;28.10;99.90;;;;;;6307888;22;20030;-63
2023/06/02 12:21:45;;;;;;;5.57;3.80;;;28.10;99.90;;;;;;6307293;22;20057;-64
2023/06/02 12:24:33;;;;;;;5.70;3.88;;;28.20;99.90;;;;;;6306664;22;20003;-64
2023/06/02 12:27:00;;;;;;;4.32;3.92;;;28.20;99.90;;;;;;6307139;22;20007;-63
2023/06/02 12:29:26;;;;;;;4.25;3.95;;;28.20;99.90;;;;;;6306984;22;19999;-63
2023/06/02 12:32:07;;;;;;;4.68;3.88;;;28.30;99.90;;;;;;6307299;22;20069;-63
2023/06/02 12:34:34;;;;;;;3.97;3.65;;;28.50;99.90;;;;;;6306865;22;19999;-65
2023/06/02 12:37:00;;;;;;;4.03;3.65;;;28.70;99.90;;;;;;6306584;22;20015;-63
2023/06/02 12:39:26;;;;;;;3.75;3.45;;;28.70;99.90;;;;;;6306797;22;20011;-64